createdAt,value
2022-10-20T00:04:15.821Z,91.80
2022-10-20T00:06:42.496Z,92.00
2022-10-20T00:09:09.435Z,91.80
2022-10-20T00:11:36.364Z,92.30
2022-10-20T00:14:03.618Z,91.70
2022-10-20T00:16:31.530Z,91.50
2022-10-20T00:18:58.808Z,91.40
2022-10-20T00:21:26.354Z,91.50
2022-10-20T00:23:53.259Z,91.20
2022-10-20T00:26:24.665Z,91.30
2022-10-20T00:28:52.197Z,91.30
2022-10-20T00:31:20.301Z,90.80
2022-10-20T00:33:47.367Z,91.00
2022-10-20T00:36:15.108Z,91.20
2022-10-20T00:38:41.972Z,91.40
2022-10-20T00:41:10.089Z,91.20
2022-10-20T00:43:56.162Z,91.10
2022-10-20T00:46:24.351Z,90.80
2022-10-20T00:48:53.483Z,90.70
2022-10-20T00:51:21.378Z,90.60
2022-10-20T00:53:49.948Z,90.50
2022-10-20T00:56:16.952Z,90.50
2022-10-20T00:58:43.763Z,90.20
2022-10-20T01:01:11.287Z,90.30
2022-10-20T01:03:46.785Z,90.10
2022-10-20T01:08:47.133Z,90.30
2022-10-20T01:11:20.236Z,91.00
2022-10-20T01:13:46.999Z,92.20
2022-10-20T01:16:22.004Z,92.30
2022-10-20T01:19:15.363Z,92.90
2022-10-20T01:21:49.683Z,92.50
2022-10-20T01:24:35.076Z,92.80
2022-10-20T01:27:20.761Z,93.50
2022-10-20T01:30:13.952Z,92.70
2022-10-20T01:32:47.118Z,92.40
2022-10-20T01:35:21.431Z,92.90
2022-10-20T01:37:53.580Z,92.50
2022-10-20T01:40:23.466Z,93.00
2022-10-20T01:42:52.395Z,93.40
2022-10-20T01:45:21.085Z,93.30
2022-10-20T01:47:48.794Z,93.90
2022-10-20T01:50:16.436Z,94.70
2022-10-20T01:52:43.172Z,94.40
2022-10-20T01:55:12.025Z,94.50
2022-10-20T01:58:05.973Z,95.20
2022-10-20T02:00:34.892Z,95.50
2022-10-20T02:03:13.631Z,95.30
2022-10-20T02:06:03.273Z,95.30
2022-10-20T02:08:30.231Z,95.10
2022-10-20T02:10:58.896Z,95.60
2022-10-20T02:13:26.262Z,95.70
2022-10-20T02:15:55.795Z,95.40
2022-10-20T02:18:25.738Z,96.40
2022-10-20T02:23:19.698Z,95.60
2022-10-20T02:25:51.196Z,95.90
2022-10-20T02:28:19.661Z,96.00
2022-10-20T02:30:46.867Z,96.60
2022-10-20T02:33:14.559Z,96.90
2022-10-20T02:35:44.175Z,96.60
2022-10-20T02:38:11.041Z,96.40
2022-10-20T02:40:37.716Z,96.90
2022-10-20T02:43:04.457Z,97.30
2022-10-20T02:45:31.197Z,97.30
2022-10-20T02:47:57.905Z,97.80
2022-10-20T02:50:24.685Z,97.70
2022-10-20T02:52:51.443Z,98.30
2022-10-20T02:57:50.541Z,97.40
2022-10-20T03:00:17.423Z,98.10
2022-10-20T03:02:44.162Z,98.10
2022-10-20T03:05:10.893Z,97.90
2022-10-20T03:07:37.812Z,98.20
2022-10-20T03:10:04.905Z,99.10
2022-10-20T03:12:32.338Z,99.90
2022-10-20T03:14:59.202Z,99.60
2022-10-20T03:17:26.115Z,98.70
2022-10-20T03:19:52.904Z,98.90
2022-10-20T03:22:20.865Z,98.70
2022-10-20T03:24:47.602Z,98.10
2022-10-20T03:27:14.318Z,98.40
2022-10-20T03:29:41.129Z,99.50
2022-10-20T03:32:07.817Z,99.20
2022-10-20T03:34:34.546Z,99.00
2022-10-20T03:37:01.432Z,99.60
2022-10-20T03:39:28.238Z,99.90
2022-10-20T03:41:55.250Z,99.90
2022-10-20T03:44:21.989Z,99.90
2022-10-20T03:46:48.732Z,99.90
2022-10-20T03:49:15.511Z,99.90
2022-10-20T03:51:42.304Z,99.90
2022-10-20T03:54:09.159Z,99.90
2022-10-20T03:56:35.934Z,99.90
2022-10-20T04:01:34.875Z,99.90
2022-10-20T04:04:01.571Z,99.90
2022-10-20T04:06:28.315Z,99.90
2022-10-20T04:08:55.070Z,99.90
2022-10-20T04:11:21.895Z,99.90
2022-10-20T04:13:48.708Z,99.90
2022-10-20T04:16:15.438Z,99.90
2022-10-20T04:21:09.430Z,99.90
2022-10-20T04:23:36.298Z,99.90
2022-10-20T04:26:10.362Z,99.90
2022-10-20T04:28:37.174Z,99.90
2022-10-20T04:31:04.033Z,99.90
2022-10-20T04:33:31.187Z,99.90
2022-10-20T04:35:58.805Z,99.90
2022-10-20T04:38:25.695Z,99.90
2022-10-20T04:40:58.095Z,99.90
2022-10-20T04:43:27.196Z,99.90
2022-10-20T04:45:53.920Z,99.90
2022-10-20T04:48:20.934Z,99.90
2022-10-20T04:50:47.630Z,99.90
2022-10-20T04:53:14.455Z,99.90
2022-10-20T04:55:41.303Z,99.90
2022-10-20T04:58:07.997Z,99.90
2022-10-20T05:00:34.724Z,99.90
2022-10-20T05:03:01.718Z,99.90
2022-10-20T05:05:28.873Z,99.90
2022-10-20T05:07:55.733Z,99.90
2022-10-20T05:10:22.606Z,99.90
2022-10-20T05:12:49.613Z,99.90
2022-10-20T05:15:16.824Z,99.90
2022-10-20T05:17:43.555Z,99.90
2022-10-20T05:20:10.415Z,99.90
2022-10-20T05:22:37.452Z,99.90
2022-10-20T05:27:51.658Z,99.90
2022-10-20T05:30:18.395Z,99.90
2022-10-20T05:32:45.799Z,99.90
2022-10-20T05:35:12.535Z,99.90
2022-10-20T05:37:39.250Z,99.90
2022-10-20T05:40:06.381Z,99.90
2022-10-20T05:42:33.613Z,99.90
2022-10-20T05:45:00.666Z,99.90
2022-10-20T05:47:27.376Z,99.90
2022-10-20T05:49:54.379Z,99.90
2022-10-20T05:52:21.121Z,99.90
2022-10-20T05:54:47.883Z,99.90
2022-10-20T05:57:14.754Z,99.90
2022-10-20T05:59:41.542Z,99.90
2022-10-20T06:02:10.991Z,99.90
2022-10-20T06:04:37.918Z,99.90
2022-10-20T06:07:04.790Z,99.90
2022-10-20T06:09:32.663Z,99.90
2022-10-20T06:11:59.565Z,99.90
2022-10-20T06:14:26.517Z,99.90
2022-10-20T06:16:53.743Z,99.90
2022-10-20T06:19:20.519Z,99.90
2022-10-20T06:21:48.911Z,99.90
2022-10-20T06:24:16.679Z,99.90
2022-10-20T06:26:43.931Z,99.90
2022-10-20T06:29:12.032Z,99.90
2022-10-20T06:31:40.265Z,99.90
2022-10-20T06:34:08.627Z,99.90
2022-10-20T06:36:38.286Z,99.90
2022-10-20T06:39:05.997Z,99.90
2022-10-20T06:41:32.989Z,99.90
2022-10-20T06:43:59.800Z,99.90
2022-10-20T06:46:33.125Z,99.90
2022-10-20T06:49:00.492Z,99.90
2022-10-20T06:51:27.241Z,99.90
2022-10-20T06:53:53.969Z,99.90
2022-10-20T06:56:22.104Z,99.90
2022-10-20T06:58:49.710Z,99.90
2022-10-20T07:01:24.115Z,98.90
2022-10-20T07:03:51.725Z,98.90
2022-10-20T07:06:28.871Z,98.60
2022-10-20T07:08:56.167Z,98.30
2022-10-20T07:11:24.869Z,98.40
2022-10-20T07:13:51.548Z,98.60
2022-10-20T07:16:20.074Z,98.20
2022-10-20T07:18:47.429Z,97.00
2022-10-20T07:21:15.122Z,96.90
2022-10-20T07:23:42.370Z,96.90
2022-10-20T07:26:11.669Z,96.80
2022-10-20T07:28:39.901Z,96.10
2022-10-20T07:31:07.574Z,96.50
2022-10-20T07:33:34.475Z,95.40
2022-10-20T07:36:01.355Z,95.50
2022-10-20T07:38:28.511Z,95.50
2022-10-20T07:41:01.624Z,95.30
2022-10-20T07:43:28.630Z,95.10
2022-10-20T07:45:55.401Z,95.20
2022-10-20T07:48:22.095Z,95.50
2022-10-20T07:50:48.883Z,95.40
2022-10-20T07:53:15.626Z,94.50
2022-10-20T07:55:42.351Z,94.80
2022-10-20T07:58:09.071Z,94.60
2022-10-20T08:00:35.836Z,94.90
2022-10-20T08:03:02.740Z,94.80
2022-10-20T08:05:29.644Z,94.90
2022-10-20T08:07:58.257Z,94.60
2022-10-20T08:10:25.221Z,94.70
2022-10-20T08:12:51.970Z,94.40
2022-10-20T08:15:18.880Z,94.50
2022-10-20T08:17:45.641Z,94.00
2022-10-20T08:20:17.939Z,93.90
2022-10-20T08:22:44.682Z,93.80
2022-10-20T08:25:14.085Z,93.90
2022-10-20T08:27:40.922Z,93.30
2022-10-20T08:30:22.842Z,94.20
2022-10-20T08:32:51.089Z,94.20
2022-10-20T08:35:17.982Z,93.30
2022-10-20T08:37:44.697Z,93.20
2022-10-20T08:40:17.019Z,92.70
2022-10-20T08:42:44.525Z,93.40
2022-10-20T08:45:14.724Z,92.90
2022-10-20T08:47:41.882Z,92.70
2022-10-20T08:50:11.752Z,92.30
2022-10-20T08:52:40.540Z,92.50
2022-10-20T08:55:07.772Z,92.90
2022-10-20T08:57:36.402Z,91.70
2022-10-20T09:00:14.447Z,92.60
2022-10-20T09:02:41.341Z,91.50
2022-10-20T09:05:09.004Z,91.70
2022-10-20T09:07:37.241Z,91.70
2022-10-20T09:10:06.792Z,91.80
2022-10-20T09:12:34.106Z,91.80
2022-10-20T09:15:01.016Z,91.90
2022-10-20T09:17:27.744Z,91.20
2022-10-20T09:19:58.373Z,91.90
2022-10-20T09:22:26.178Z,90.80
2022-10-20T09:24:55.093Z,91.00
2022-10-20T09:27:23.823Z,90.80
2022-10-20T09:29:50.517Z,90.80
2022-10-20T09:32:47.815Z,90.80
2022-10-20T09:35:15.026Z,90.00
2022-10-20T09:37:42.299Z,89.00
2022-10-20T09:40:16.351Z,90.00
2022-10-20T09:42:47.264Z,88.80
2022-10-20T09:45:19.254Z,89.40
2022-10-20T09:47:47.080Z,90.40
2022-10-20T09:50:34.459Z,88.90
2022-10-20T09:53:02.498Z,89.30
2022-10-20T09:55:31.072Z,88.70
2022-10-20T09:57:59.095Z,88.40
2022-10-20T10:00:38.185Z,88.90
2022-10-20T10:03:09.009Z,86.80
2022-10-20T10:05:35.884Z,87.40
2022-10-20T10:08:02.615Z,86.60
2022-10-20T10:10:30.480Z,85.00
2022-10-20T10:12:58.561Z,85.70
2022-10-20T10:15:29.649Z,87.90
2022-10-20T10:17:56.867Z,86.40
2022-10-20T10:20:26.351Z,83.30
2022-10-20T10:22:53.492Z,85.50
2022-10-20T10:25:25.303Z,84.40
2022-10-20T10:28:03.053Z,84.80
2022-10-20T10:30:36.786Z,85.00
2022-10-20T10:33:23.492Z,84.10
2022-10-20T10:35:50.349Z,84.00
2022-10-20T10:38:17.235Z,85.00
2022-10-20T10:40:54.897Z,85.40
2022-10-20T10:43:50.847Z,82.60
2022-10-20T10:46:17.617Z,84.50
2022-10-20T10:48:53.734Z,83.30
2022-10-20T10:51:23.232Z,82.80
2022-10-20T10:53:53.110Z,84.00
2022-10-20T10:56:29.589Z,82.20
2022-10-20T10:58:59.121Z,81.00
2022-10-20T11:01:39.963Z,81.70
2022-10-20T11:04:06.717Z,80.30
2022-10-20T11:06:59.652Z,82.60
2022-10-20T11:09:45.679Z,81.20
2022-10-20T11:12:31.279Z,81.80
2022-10-20T11:15:13.316Z,81.30
2022-10-20T11:18:05.770Z,82.00
2022-10-20T11:20:32.497Z,79.90
2022-10-20T11:23:31.650Z,78.10
2022-10-20T11:26:03.008Z,80.60
2022-10-20T11:28:38.670Z,80.80
2022-10-20T11:31:05.571Z,78.90
2022-10-20T11:33:42.018Z,80.60
2022-10-20T11:36:10.894Z,81.10
2022-10-20T11:38:43.374Z,80.20
2022-10-20T11:41:15.636Z,81.30
2022-10-20T11:43:57.159Z,81.00
2022-10-20T11:46:42.585Z,79.80
2022-10-20T11:49:09.682Z,81.20
2022-10-20T11:51:46.230Z,80.70
2022-10-20T11:54:31.982Z,80.30
2022-10-20T11:57:03.823Z,81.60
2022-10-20T11:59:49.411Z,80.00
2022-10-20T12:02:28.195Z,80.10
2022-10-20T12:05:04.120Z,81.70
2022-10-20T12:07:33.959Z,80.20
2022-10-20T12:10:17.092Z,78.60
2022-10-20T12:12:51.495Z,80.10
2022-10-20T12:15:22.683Z,77.80
2022-10-20T12:17:50.936Z,79.60
2022-10-20T12:20:20.959Z,79.40
2022-10-20T12:22:49.109Z,78.60
2022-10-20T12:25:24.982Z,76.10
2022-10-20T12:28:18.143Z,76.90
2022-10-20T12:30:53.015Z,77.40
2022-10-20T12:33:34.078Z,77.80
2022-10-20T12:36:00.982Z,78.20
2022-10-20T12:38:28.813Z,78.00
2022-10-20T12:40:57.070Z,76.50
2022-10-20T12:43:25.585Z,77.50
2022-10-20T12:45:56.938Z,78.80
2022-10-20T12:48:24.312Z,78.10
2022-10-20T12:50:51.672Z,77.00
2022-10-20T12:53:18.367Z,77.50
2022-10-20T12:55:47.966Z,77.80
2022-10-20T12:58:14.614Z,78.10
2022-10-20T13:00:41.322Z,78.00
2022-10-20T13:03:27.974Z,78.80
2022-10-20T13:05:54.735Z,77.60
2022-10-20T13:08:21.514Z,78.30
2022-10-20T13:10:48.923Z,76.90
2022-10-20T13:13:18.626Z,76.50
2022-10-20T13:15:48.151Z,75.80
2022-10-20T13:18:17.385Z,76.50
2022-10-20T13:20:55.769Z,77.60
2022-10-20T13:23:29.264Z,77.60
2022-10-20T13:25:57.371Z,77.70
2022-10-20T13:28:24.966Z,76.40
2022-10-20T13:30:58.328Z,76.40
2022-10-20T13:34:04.030Z,76.80
2022-10-20T13:36:37.737Z,76.30
2022-10-20T13:39:20.130Z,76.80
2022-10-20T13:42:02.196Z,77.30
2022-10-20T13:44:31.543Z,77.90
2022-10-20T13:47:17.740Z,78.90
2022-10-20T13:50:06.371Z,78.50
2022-10-20T13:52:40.076Z,78.60
2022-10-20T13:55:07.691Z,80.30
2022-10-20T13:57:35.279Z,81.20
2022-10-20T14:00:16.128Z,79.70
2022-10-20T14:02:51.872Z,81.10
2022-10-20T14:05:20.650Z,81.90
2022-10-20T14:07:47.487Z,80.00
2022-10-20T14:10:21.313Z,80.20
2022-10-20T14:12:48.169Z,80.70
2022-10-20T14:15:18.539Z,80.80
2022-10-20T14:20:26.695Z,79.10
2022-10-20T14:22:54.360Z,80.40
2022-10-20T14:25:21.733Z,81.50
2022-10-20T14:27:48.994Z,81.00
2022-10-20T14:30:17.367Z,81.40
2022-10-20T14:32:45.360Z,81.70
2022-10-20T14:35:12.138Z,80.60
2022-10-20T14:37:40.776Z,81.10
2022-10-20T14:40:17.702Z,81.30
2022-10-20T14:42:45.072Z,82.00
2022-10-20T14:45:22.912Z,81.80
2022-10-20T14:47:50.136Z,81.70
2022-10-20T14:50:22.596Z,82.10
2022-10-20T14:52:53.851Z,82.20
2022-10-20T14:55:41.289Z,82.50
2022-10-20T14:58:26.873Z,82.20
2022-10-20T15:01:12.761Z,84.00
2022-10-20T15:03:39.648Z,86.20
2022-10-20T15:06:13.740Z,90.70
2022-10-20T15:08:52.045Z,91.70
2022-10-20T15:11:23.489Z,92.50
2022-10-20T15:13:54.311Z,93.40
2022-10-20T15:16:33.205Z,94.20
2022-10-20T15:19:18.931Z,94.80
2022-10-20T15:21:46.650Z,95.40
2022-10-20T15:24:13.554Z,95.70
2022-10-20T15:26:40.292Z,95.60
2022-10-20T15:29:07.045Z,95.70
2022-10-20T15:31:33.824Z,96.10
2022-10-20T15:34:00.609Z,96.60
2022-10-20T15:36:31.235Z,96.80
2022-10-20T15:38:58.108Z,96.90
2022-10-20T15:41:26.532Z,97.20
2022-10-20T15:43:53.757Z,97.50
2022-10-20T15:46:20.415Z,97.70
2022-10-20T15:48:47.239Z,97.90
2022-10-20T15:51:19.714Z,97.80
2022-10-20T15:53:46.407Z,98.00
2022-10-20T15:56:13.246Z,98.50
2022-10-20T15:58:40.116Z,98.40
2022-10-20T16:01:08.917Z,98.10
2022-10-20T16:03:36.016Z,98.80
2022-10-20T16:06:02.824Z,99.20
2022-10-20T16:08:29.590Z,99.20
2022-10-20T16:10:56.700Z,99.40
2022-10-20T16:13:23.631Z,99.40
2022-10-20T16:15:50.529Z,99.70
2022-10-20T16:18:17.276Z,99.90
2022-10-20T16:20:44.012Z,99.90
2022-10-20T16:23:11.263Z,99.90
2022-10-20T16:25:41.166Z,99.90
2022-10-20T16:28:08.178Z,99.90
2022-10-20T16:30:34.921Z,99.90
2022-10-20T16:33:02.151Z,99.90
2022-10-20T16:35:29.378Z,99.90
2022-10-20T16:37:56.443Z,99.90
2022-10-20T16:40:24.122Z,99.90
2022-10-20T16:42:50.870Z,99.90
2022-10-20T16:45:17.610Z,99.90
2022-10-20T16:47:44.752Z,99.90
2022-10-20T16:50:11.539Z,99.90
2022-10-20T16:52:38.712Z,99.90
2022-10-20T16:55:06.015Z,99.90
2022-10-20T16:57:35.384Z,99.90
2022-10-20T17:00:02.843Z,99.90
2022-10-20T17:02:30.163Z,99.90
2022-10-20T17:04:57.748Z,99.90
2022-10-20T17:07:25.998Z,99.90
2022-10-20T17:09:53.551Z,99.90
2022-10-20T17:12:20.542Z,99.90
2022-10-20T17:14:47.382Z,99.90
2022-10-20T17:17:15.306Z,99.90
2022-10-20T17:19:43.307Z,99.90
2022-10-20T17:24:39.004Z,99.90
2022-10-20T17:27:06.652Z,99.90
2022-10-20T17:29:33.617Z,99.90
2022-10-20T17:32:00.385Z,99.90
2022-10-20T17:34:27.651Z,99.90
2022-10-20T17:36:58.887Z,99.90
2022-10-20T17:39:26.482Z,99.90
2022-10-20T17:41:54.744Z,99.90
2022-10-20T17:44:21.628Z,99.90
2022-10-20T17:46:48.803Z,99.90
2022-10-20T17:49:16.366Z,99.90
2022-10-20T17:51:44.675Z,99.90
2022-10-20T17:54:11.486Z,99.90
2022-10-20T17:56:39.190Z,99.90
2022-10-20T17:59:07.024Z,99.90
2022-10-20T18:01:38.961Z,99.90
2022-10-20T18:04:13.861Z,99.90
2022-10-20T18:06:41.531Z,99.90
2022-10-20T18:09:11.215Z,99.90
2022-10-20T18:11:40.587Z,99.90
2022-10-20T18:14:08.284Z,99.90
2022-10-20T18:16:36.837Z,99.90
2022-10-20T18:19:04.464Z,99.90
2022-10-20T18:21:33.315Z,99.90
2022-10-20T18:24:01.978Z,99.90
2022-10-20T18:26:30.044Z,99.90
2022-10-20T18:28:58.598Z,99.90
2022-10-20T18:31:56.972Z,99.90
2022-10-20T18:34:24.025Z,99.90
2022-10-20T18:36:54.181Z,99.90
2022-10-20T18:39:21.566Z,99.90
2022-10-20T18:41:52.977Z,99.90
2022-10-20T18:44:21.535Z,99.90
2022-10-20T18:46:49.622Z,99.90
2022-10-20T18:49:19.675Z,99.90
2022-10-20T18:51:47.769Z,99.90
2022-10-20T18:54:16.237Z,99.90
2022-10-20T18:56:43.365Z,99.90
2022-10-20T18:59:12.703Z,99.90
2022-10-20T19:01:42.351Z,99.90
2022-10-20T19:04:11.347Z,99.90
2022-10-20T19:06:44.047Z,99.90
2022-10-20T19:09:18.376Z,99.90
2022-10-20T19:11:46.922Z,99.90
2022-10-20T19:14:14.582Z,99.90
2022-10-20T19:16:45.270Z,99.90
2022-10-20T19:19:12.955Z,99.90
2022-10-20T19:21:40.766Z,99.90
2022-10-20T19:24:21.189Z,99.90
2022-10-20T19:26:57.443Z,99.90
2022-10-20T19:29:38.026Z,99.90
2022-10-20T19:32:06.945Z,99.90
2022-10-20T19:34:40.781Z,99.90
2022-10-20T19:37:09.148Z,99.90
2022-10-20T19:39:41.589Z,99.90
2022-10-20T19:42:09.828Z,99.90
2022-10-20T19:44:38.946Z,99.90
2022-10-20T19:47:07.394Z,99.90
2022-10-20T19:49:39.521Z,99.90
2022-10-20T19:52:08.577Z,99.90
2022-10-20T19:54:36.648Z,99.90
2022-10-20T19:57:04.907Z,99.90
2022-10-20T19:59:32.161Z,99.90
2022-10-20T20:02:07.928Z,99.90
2022-10-20T20:04:35.093Z,99.90
2022-10-20T20:07:02.747Z,99.90
2022-10-20T20:09:30.358Z,99.90
2022-10-20T20:11:58.325Z,99.90
2022-10-20T20:14:25.819Z,99.90
2022-10-20T20:16:52.974Z,99.90
2022-10-20T20:19:20.288Z,99.90
2022-10-20T20:21:47.679Z,99.90
2022-10-20T20:24:14.666Z,99.90
2022-10-20T20:26:41.727Z,99.90
2022-10-20T20:29:09.543Z,99.90
2022-10-20T20:31:36.498Z,99.90
2022-10-20T20:34:03.894Z,99.90
2022-10-20T20:36:31.121Z,99.90
2022-10-20T20:38:59.028Z,99.90
2022-10-20T20:41:27.971Z,99.90
2022-10-20T20:43:55.223Z,99.90
2022-10-20T20:46:23.891Z,99.90
2022-10-20T20:48:51.131Z,99.90
2022-10-20T20:51:18.310Z,99.90
2022-10-20T20:53:45.104Z,99.90
2022-10-20T20:56:14.571Z,99.90
2022-10-20T20:58:42.836Z,99.90
2022-10-20T21:01:22.593Z,99.90
2022-10-20T21:03:54.823Z,99.90
2022-10-20T21:06:25.730Z,99.90
2022-10-20T21:09:01.053Z,99.90
2022-10-20T21:11:27.987Z,99.90
2022-10-20T21:13:56.617Z,99.90
2022-10-20T21:16:31.082Z,99.90
2022-10-20T21:19:01.273Z,99.90
2022-10-20T21:21:33.877Z,99.90
2022-10-20T21:24:01.863Z,99.90
2022-10-20T21:26:29.298Z,99.90
2022-10-20T21:28:57.247Z,99.90
2022-10-20T21:31:25.969Z,99.90
2022-10-20T21:33:55.194Z,99.90
2022-10-20T21:36:22.705Z,99.90
2022-10-20T21:38:50.113Z,99.90
2022-10-20T21:41:19.286Z,99.90
2022-10-20T21:43:52.317Z,99.90
2022-10-20T21:46:30.989Z,99.90
2022-10-20T21:49:03.050Z,99.90
2022-10-20T21:51:36.301Z,99.90
2022-10-20T21:54:06.273Z,99.90
2022-10-20T21:56:38.093Z,99.90
2022-10-20T21:59:05.755Z,99.90
2022-10-20T22:01:32.972Z,99.90
2022-10-20T22:03:59.902Z,99.90
2022-10-20T22:06:28.070Z,99.90
2022-10-20T22:08:57.523Z,99.90
2022-10-20T22:11:30.738Z,99.90
2022-10-20T22:13:58.146Z,99.90
2022-10-20T22:16:28.539Z,99.90
2022-10-20T22:19:09.053Z,99.90
2022-10-20T22:21:37.544Z,99.90
2022-10-20T22:24:05.199Z,99.90
2022-10-20T22:26:33.467Z,99.90
2022-10-20T22:29:00.682Z,99.90
2022-10-20T22:31:28.090Z,99.90
2022-10-20T22:33:56.981Z,99.90
2022-10-20T22:36:24.936Z,99.90
2022-10-20T22:38:52.364Z,99.90
2022-10-20T22:41:19.473Z,99.90
2022-10-20T22:43:46.499Z,99.90
2022-10-20T22:46:13.558Z,99.90
2022-10-20T22:48:40.349Z,99.90
2022-10-20T22:51:09.102Z,99.90
2022-10-20T22:53:36.982Z,99.90
2022-10-20T22:56:25.112Z,99.90
2022-10-20T22:59:10.424Z,99.90
2022-10-20T23:01:37.286Z,99.90
2022-10-20T23:04:04.171Z,99.90
2022-10-20T23:06:30.986Z,99.90
2022-10-20T23:08:57.823Z,99.90
2022-10-20T23:11:25.068Z,99.90
2022-10-20T23:13:51.993Z,99.90
2022-10-20T23:16:19.918Z,99.90
2022-10-20T23:18:47.308Z,99.90
2022-10-20T23:21:14.614Z,99.90
2022-10-20T23:23:41.477Z,99.90
2022-10-20T23:26:09.585Z,99.90
2022-10-20T23:28:37.675Z,99.90
2022-10-20T23:31:10.390Z,99.90
2022-10-20T23:33:38.827Z,99.90
2022-10-20T23:36:05.885Z,99.90
2022-10-20T23:38:33.277Z,99.90
2022-10-20T23:41:00.150Z,99.90
2022-10-20T23:43:27.170Z,99.90
2022-10-20T23:45:53.974Z,99.90
2022-10-20T23:48:20.811Z,99.90
2022-10-20T23:50:47.564Z,99.90
2022-10-20T23:53:15.132Z,99.90
2022-10-20T23:55:43.043Z,99.90
2022-10-20T23:58:10.501Z,99.90
